createdAt,value
2022-12-20T00:00:57.091Z,94.30
2022-12-20T00:03:20.235Z,94.17
2022-12-20T00:05:42.703Z,94.31
2022-12-20T00:08:04.359Z,94.68
2022-12-20T00:10:25.940Z,95.42
2022-12-20T00:12:47.455Z,95.75
2022-12-20T00:15:09.812Z,95.47
2022-12-20T00:17:31.602Z,95.38
2022-12-20T00:19:53.121Z,94.57
2022-12-20T00:22:14.879Z,94.66
2022-12-20T00:24:37.125Z,95.01
2022-12-20T00:26:58.685Z,95.31
2022-12-20T00:29:20.144Z,95.30
2022-12-20T00:31:41.661Z,94.60
2022-12-20T00:34:03.472Z,94.25
2022-12-20T00:36:27.281Z,94.59
2022-12-20T00:38:50.904Z,93.71
2022-12-20T00:41:16.363Z,94.32
2022-12-20T00:43:39.501Z,93.52
2022-12-20T00:46:01.526Z,93.81
2022-12-20T00:48:23.388Z,94.32
2022-12-20T00:50:44.874Z,95.60
2022-12-20T00:53:09.903Z,94.81
2022-12-20T00:55:31.392Z,94.56
2022-12-20T00:57:52.873Z,95.24
2022-12-20T01:00:15.418Z,95.06
2022-12-20T01:02:37.134Z,94.63
2022-12-20T01:04:58.907Z,94.00
2022-12-20T01:07:20.405Z,94.64
2022-12-20T01:09:41.899Z,95.24
2022-12-20T01:12:03.745Z,95.38
2022-12-20T01:14:25.228Z,96.61
2022-12-20T01:16:48.185Z,96.86
2022-12-20T01:19:13.239Z,96.16
2022-12-20T01:21:36.014Z,96.38
2022-12-20T01:23:57.717Z,96.48
2022-12-20T01:26:22.234Z,96.06
2022-12-20T01:28:45.700Z,95.65
2022-12-20T01:31:12.490Z,96.02
2022-12-20T01:33:34.832Z,96.50
2022-12-20T01:35:58.468Z,96.70
2022-12-20T01:38:19.929Z,96.79
2022-12-20T01:40:41.438Z,96.64
2022-12-20T01:43:02.918Z,95.74
2022-12-20T01:45:30.995Z,95.84
2022-12-20T01:47:52.724Z,95.67
2022-12-20T01:50:14.465Z,95.71
2022-12-20T01:52:40.908Z,95.37
2022-12-20T01:55:08.722Z,96.47
2022-12-20T01:57:41.101Z,96.57
2022-12-20T02:00:04.574Z,97.30
2022-12-20T02:02:27.126Z,97.01
2022-12-20T02:04:48.693Z,97.04
2022-12-20T02:07:17.487Z,97.10
2022-12-20T02:09:39.660Z,98.13
2022-12-20T02:12:03.787Z,97.62
2022-12-20T02:15:13.229Z,98.41
2022-12-20T02:18:02.189Z,98.20
2022-12-20T02:20:39.515Z,97.56
2022-12-20T02:23:22.588Z,96.54
2022-12-20T02:26:04.716Z,96.07
2022-12-20T02:28:52.152Z,95.93
2022-12-20T02:31:18.930Z,96.01
2022-12-20T02:33:48.030Z,95.37
2022-12-20T02:36:09.734Z,94.72
2022-12-20T02:38:35.843Z,94.99
2022-12-20T02:41:27.187Z,95.47
2022-12-20T02:44:12.993Z,95.22
2022-12-20T02:46:36.178Z,95.31
2022-12-20T02:49:03.318Z,95.23
2022-12-20T02:51:28.703Z,95.95
2022-12-20T02:53:50.783Z,96.03
2022-12-20T02:56:36.438Z,96.71
2022-12-20T02:59:21.469Z,97.12
2022-12-20T03:01:49.906Z,98.04
2022-12-20T03:04:12.605Z,97.90
2022-12-20T03:06:34.544Z,98.30
2022-12-20T03:08:56.209Z,98.16
2022-12-20T03:11:17.743Z,97.67
2022-12-20T03:13:39.352Z,97.43
2022-12-20T03:16:00.849Z,97.11
2022-12-20T03:18:22.366Z,97.53
2022-12-20T03:20:44.287Z,97.68
2022-12-20T03:23:06.654Z,97.22
2022-12-20T03:25:28.302Z,97.69
2022-12-20T03:27:49.811Z,97.48
2022-12-20T03:30:12.132Z,97.87
2022-12-20T03:32:33.695Z,98.34
2022-12-20T03:34:55.189Z,98.60
2022-12-20T03:37:16.802Z,97.92
2022-12-20T03:39:38.290Z,98.13
2022-12-20T03:41:59.792Z,97.39
2022-12-20T03:44:21.481Z,96.85
2022-12-20T03:46:43.068Z,96.62
2022-12-20T03:49:04.718Z,95.79
2022-12-20T03:51:26.291Z,95.69
2022-12-20T03:53:47.763Z,96.61
2022-12-20T03:56:09.292Z,96.59
2022-12-20T03:58:30.795Z,96.16
2022-12-20T04:00:52.376Z,96.03
2022-12-20T04:03:13.942Z,96.17
2022-12-20T04:05:35.523Z,95.93
2022-12-20T04:07:57.007Z,95.74
2022-12-20T04:10:18.515Z,95.87
2022-12-20T04:12:40.030Z,95.03
2022-12-20T04:15:01.651Z,96.41
2022-12-20T04:17:23.171Z,96.64
2022-12-20T04:19:44.653Z,96.08
2022-12-20T04:22:06.515Z,95.00
2022-12-20T04:24:28.145Z,94.97
2022-12-20T04:26:49.724Z,94.32
2022-12-20T04:29:11.331Z,94.09
2022-12-20T04:31:33.371Z,94.02
2022-12-20T04:33:55.206Z,93.81
2022-12-20T04:36:16.795Z,93.63
2022-12-20T04:38:38.280Z,94.26
2022-12-20T04:40:59.953Z,93.96
2022-12-20T04:43:22.953Z,94.47
2022-12-20T04:45:45.277Z,94.99
2022-12-20T04:48:36.922Z,94.90
2022-12-20T04:50:49.633Z,95.36
2022-12-20T04:53:30.249Z,95.07
2022-12-20T04:55:51.951Z,95.02
2022-12-20T04:58:13.450Z,93.89
2022-12-20T05:00:35.406Z,93.57
2022-12-20T05:02:56.980Z,94.42
2022-12-20T05:05:18.624Z,95.25
2022-12-20T05:07:40.306Z,94.86
2022-12-20T05:10:01.859Z,94.60
2022-12-20T05:12:23.346Z,94.90
2022-12-20T05:14:44.903Z,94.88
2022-12-20T05:17:06.522Z,96.43
2022-12-20T05:19:27.994Z,96.60
2022-12-20T05:22:08.075Z,95.94
2022-12-20T05:24:48.147Z,96.26
2022-12-20T05:27:09.696Z,96.56
2022-12-20T05:29:31.187Z,97.42
2022-12-20T05:31:52.780Z,96.55
2022-12-20T05:34:14.400Z,96.06
2022-12-20T05:36:35.900Z,96.11
2022-12-20T05:39:03.650Z,94.97
2022-12-20T05:41:26.008Z,94.68
2022-12-20T05:43:47.467Z,95.29
2022-12-20T05:46:09.077Z,96.14
2022-12-20T05:48:30.660Z,95.97
2022-12-20T05:50:52.177Z,96.20
2022-12-20T05:53:15.558Z,95.94
2022-12-20T05:55:37.089Z,93.77
2022-12-20T05:57:58.573Z,94.12
2022-12-20T06:00:20.341Z,95.21
2022-12-20T06:02:42.082Z,96.13
2022-12-20T06:05:03.835Z,96.18
2022-12-20T06:07:28.950Z,95.57
2022-12-20T06:09:50.579Z,95.92
2022-12-20T06:12:12.071Z,96.63
2022-12-20T06:14:33.545Z,97.46
2022-12-20T06:16:55.102Z,97.24
2022-12-20T06:19:21.416Z,96.10
2022-12-20T06:21:43.443Z,95.37
2022-12-20T06:24:05.747Z,95.36
2022-12-20T06:26:27.665Z,94.79
2022-12-20T06:28:52.798Z,95.20
2022-12-20T06:31:14.440Z,95.24
2022-12-20T06:33:36.681Z,95.11
2022-12-20T06:35:58.143Z,95.53
2022-12-20T06:38:19.662Z,95.48
2022-12-20T06:40:41.187Z,96.07
2022-12-20T06:43:02.674Z,95.71
2022-12-20T06:45:24.168Z,94.61
2022-12-20T06:47:45.695Z,94.92
2022-12-20T06:50:07.929Z,93.78
2022-12-20T06:52:29.460Z,94.13
2022-12-20T06:54:50.934Z,94.20
2022-12-20T06:57:12.555Z,94.64
2022-12-20T06:59:34.042Z,94.47
2022-12-20T07:01:55.690Z,96.53
2022-12-20T07:04:17.395Z,97.78
2022-12-20T07:06:38.873Z,97.80
2022-12-20T07:09:00.411Z,97.99
2022-12-20T07:11:22.353Z,98.01
2022-12-20T07:13:43.828Z,97.07
2022-12-20T07:16:05.801Z,95.91
2022-12-20T07:18:27.420Z,95.95
2022-12-20T07:20:48.904Z,95.65
2022-12-20T07:23:10.376Z,95.67
2022-12-20T07:25:31.996Z,95.90
2022-12-20T07:27:53.956Z,95.51
2022-12-20T07:30:16.501Z,96.36
2022-12-20T07:32:37.959Z,97.61
2022-12-20T07:34:59.476Z,96.39
2022-12-20T07:37:20.974Z,96.22
2022-12-20T07:39:42.451Z,96.90
2022-12-20T07:42:05.236Z,95.29
2022-12-20T07:44:26.729Z,94.78
2022-12-20T07:46:48.356Z,95.73
2022-12-20T07:49:10.077Z,95.99
2022-12-20T07:51:36.427Z,95.28
2022-12-20T07:54:22.617Z,94.13
2022-12-20T07:56:47.676Z,95.58
2022-12-20T07:59:13.049Z,95.29
2022-12-20T08:01:35.414Z,95.83
2022-12-20T08:04:12.970Z,95.85
2022-12-20T08:06:37.121Z,96.36
2022-12-20T08:09:02.884Z,94.55
2022-12-20T08:11:25.942Z,94.44
2022-12-20T08:13:54.189Z,93.73
2022-12-20T08:16:19.183Z,94.67
2022-12-20T08:18:40.723Z,94.18
2022-12-20T08:21:02.244Z,94.86
2022-12-20T08:23:23.697Z,96.08
2022-12-20T08:25:45.365Z,96.69
2022-12-20T08:28:06.855Z,97.99
2022-12-20T08:30:28.977Z,96.15
2022-12-20T08:32:50.519Z,95.72
2022-12-20T08:35:13.117Z,95.54
2022-12-20T08:37:34.722Z,95.88
2022-12-20T08:39:56.196Z,94.97
2022-12-20T08:42:17.750Z,94.94
2022-12-20T08:44:39.235Z,94.81
2022-12-20T08:47:00.752Z,95.38
2022-12-20T08:49:22.320Z,95.74
2022-12-20T08:51:43.904Z,95.69
2022-12-20T08:54:05.540Z,97.66
2022-12-20T08:56:27.037Z,98.71
2022-12-20T08:58:48.781Z,97.42
2022-12-20T09:01:13.222Z,97.39
2022-12-20T09:03:36.188Z,96.79
2022-12-20T09:05:59.345Z,95.48
2022-12-20T09:08:20.914Z,95.49
2022-12-20T09:10:43.325Z,94.13
2022-12-20T09:13:04.768Z,95.10
2022-12-20T09:15:27.812Z,96.86
2022-12-20T09:17:49.341Z,98.47
2022-12-20T09:20:11.012Z,99.52
2022-12-20T09:22:32.457Z,99.83
2022-12-20T09:24:53.904Z,99.69
2022-12-20T09:27:15.422Z,100.00
2022-12-20T09:29:36.908Z,99.38
2022-12-20T09:31:58.406Z,98.60
2022-12-20T09:34:19.861Z,98.44
2022-12-20T09:36:41.361Z,97.48
2022-12-20T09:39:02.836Z,97.12
2022-12-20T09:41:38.273Z,95.80
2022-12-20T09:44:05.641Z,93.96
2022-12-20T09:46:28.050Z,93.04
2022-12-20T09:48:50.906Z,92.11
2022-12-20T09:51:41.880Z,93.62
2022-12-20T09:54:09.162Z,95.46
2022-12-20T09:56:36.622Z,96.28
2022-12-20T09:59:06.838Z,96.90
2022-12-20T10:01:38.069Z,95.13
2022-12-20T10:04:05.008Z,95.25
2022-12-20T10:06:55.589Z,93.51
2022-12-20T10:09:46.381Z,92.63
2022-12-20T10:12:15.501Z,91.63
2022-12-20T10:14:55.348Z,91.44
2022-12-20T10:17:19.638Z,91.42
2022-12-20T10:19:59.348Z,91.28
2022-12-20T10:22:26.058Z,91.89
2022-12-20T10:25:01.875Z,90.97
2022-12-20T10:27:24.670Z,89.87
2022-12-20T10:29:48.235Z,88.85
2022-12-20T10:32:22.259Z,88.88
2022-12-20T10:35:01.306Z,88.38
2022-12-20T10:37:22.868Z,87.53
2022-12-20T10:39:48.998Z,87.60
2022-12-20T10:42:36.025Z,87.79
2022-12-20T10:44:57.819Z,88.16
2022-12-20T10:47:34.245Z,87.85
2022-12-20T10:50:08.878Z,88.14
2022-12-20T10:52:30.356Z,88.23
2022-12-20T10:54:51.850Z,87.88
2022-12-20T10:57:25.133Z,88.56
2022-12-20T10:59:55.341Z,88.71
2022-12-20T11:02:35.009Z,88.81
2022-12-20T11:05:01.337Z,87.37
2022-12-20T11:07:27.451Z,87.99
2022-12-20T11:09:57.154Z,86.96
2022-12-20T11:12:18.768Z,85.69
2022-12-20T11:14:42.000Z,85.92
2022-12-20T11:17:11.588Z,86.49
2022-12-20T11:19:59.476Z,85.95
2022-12-20T11:22:37.437Z,86.92
2022-12-20T11:25:26.007Z,86.98
2022-12-20T11:28:03.770Z,88.29
2022-12-20T11:30:53.760Z,88.57
2022-12-20T11:33:50.988Z,87.48
2022-12-20T11:36:27.294Z,87.04
2022-12-20T11:39:31.263Z,86.23
2022-12-20T11:42:11.113Z,86.20
2022-12-20T11:44:50.157Z,86.63
2022-12-20T11:47:50.094Z,85.01
2022-12-20T11:50:36.343Z,87.04
2022-12-20T11:53:08.790Z,88.13
2022-12-20T11:55:35.523Z,90.01
2022-12-20T11:58:18.755Z,91.30
2022-12-20T12:00:44.920Z,90.57
2022-12-20T12:03:32.684Z,91.48
2022-12-20T12:06:00.770Z,89.10
2022-12-20T12:08:29.180Z,88.96
2022-12-20T12:11:07.060Z,88.62
2022-12-20T12:13:31.911Z,88.08
2022-12-20T12:16:05.323Z,88.58
2022-12-20T12:18:32.032Z,89.52
2022-12-20T12:21:10.108Z,89.04
2022-12-20T12:23:46.780Z,87.63
2022-12-20T12:26:18.456Z,89.28
2022-12-20T12:28:39.994Z,88.96
2022-12-20T12:31:10.757Z,91.00
2022-12-20T12:33:39.252Z,92.30
2022-12-20T12:36:46.867Z,93.58
2022-12-20T12:39:33.557Z,93.40
2022-12-20T12:42:07.303Z,91.44
2022-12-20T12:44:49.578Z,90.48
2022-12-20T12:47:28.420Z,89.08
2022-12-20T12:49:52.974Z,89.65
2022-12-20T12:52:36.264Z,89.69
2022-12-20T12:54:57.762Z,88.96
2022-12-20T12:57:19.581Z,88.75
2022-12-20T12:59:49.475Z,88.03
2022-12-20T13:02:14.317Z,88.57
2022-12-20T13:05:06.820Z,89.70
2022-12-20T13:07:35.123Z,91.03
2022-12-20T13:09:56.683Z,90.48
2022-12-20T13:12:36.271Z,89.65
2022-12-20T13:14:57.788Z,89.66
2022-12-20T13:17:25.755Z,88.49
2022-12-20T13:19:53.467Z,89.25
2022-12-20T13:22:17.711Z,88.71
2022-12-20T13:24:56.331Z,87.69
2022-12-20T13:27:37.016Z,87.88
2022-12-20T13:30:04.634Z,88.13
2022-12-20T13:32:47.751Z,88.67
2022-12-20T13:35:24.701Z,88.27
2022-12-20T13:38:02.060Z,87.09
2022-12-20T13:40:38.892Z,88.38
2022-12-20T13:43:07.725Z,88.54
2022-12-20T13:45:29.780Z,88.42
2022-12-20T13:47:59.917Z,89.51
2022-12-20T13:50:27.438Z,89.46
2022-12-20T13:52:49.324Z,89.30
2022-12-20T13:55:30.960Z,88.91
2022-12-20T13:57:54.042Z,89.36
2022-12-20T14:00:25.515Z,88.49
2022-12-20T14:02:47.257Z,88.42
2022-12-20T14:05:26.717Z,89.36
2022-12-20T14:07:58.111Z,89.45
2022-12-20T14:10:23.886Z,88.98
2022-12-20T14:12:46.280Z,88.54
2022-12-20T14:15:34.115Z,88.24
2022-12-20T14:17:55.716Z,88.63
2022-12-20T14:20:22.465Z,87.75
2022-12-20T14:22:59.261Z,87.52
2022-12-20T14:25:38.677Z,87.40
2022-12-20T14:28:00.533Z,87.90
2022-12-20T14:30:32.019Z,87.35
2022-12-20T14:32:55.444Z,88.27
2022-12-20T14:35:21.067Z,88.82
2022-12-20T14:37:53.379Z,89.94
2022-12-20T14:40:19.373Z,89.54
2022-12-20T14:42:40.928Z,92.63
2022-12-20T14:45:27.059Z,93.08
2022-12-20T14:47:51.822Z,93.23
2022-12-20T14:50:26.470Z,93.24
2022-12-20T14:52:48.032Z,93.64
2022-12-20T14:55:17.811Z,94.18
2022-12-20T14:57:45.278Z,93.16
2022-12-20T15:00:15.309Z,91.85
2022-12-20T15:02:41.593Z,92.95
2022-12-20T15:05:35.636Z,92.85
2022-12-20T15:08:15.399Z,93.37
2022-12-20T15:10:37.245Z,91.45
2022-12-20T15:12:58.695Z,91.36
2022-12-20T15:15:34.627Z,90.33
2022-12-20T15:17:56.127Z,89.33
2022-12-20T15:20:17.705Z,89.14
2022-12-20T15:22:39.976Z,89.56
2022-12-20T15:25:01.516Z,90.49
2022-12-20T15:27:24.431Z,90.41
2022-12-20T15:29:45.858Z,91.16
2022-12-20T15:32:15.833Z,91.59
2022-12-20T15:34:38.770Z,91.39
2022-12-20T15:37:00.363Z,91.87
2022-12-20T15:39:22.331Z,92.03
2022-12-20T15:41:47.157Z,91.33
2022-12-20T15:44:17.551Z,90.92
2022-12-20T15:46:39.066Z,89.23
2022-12-20T15:49:00.522Z,89.60
2022-12-20T15:51:30.137Z,89.95
2022-12-20T15:53:51.614Z,89.96
2022-12-20T15:56:19.414Z,89.64
2022-12-20T15:58:40.858Z,90.52
2022-12-20T16:01:03.463Z,89.74
2022-12-20T16:03:30.660Z,89.97
2022-12-20T16:05:52.472Z,89.86
2022-12-20T16:08:14.137Z,90.15
2022-12-20T16:10:36.405Z,89.78
2022-12-20T16:12:57.906Z,90.12
2022-12-20T16:15:22.309Z,89.51
2022-12-20T16:17:43.809Z,90.25
2022-12-20T16:20:06.096Z,90.03
2022-12-20T16:22:27.516Z,89.53
2022-12-20T16:24:49.483Z,88.50
2022-12-20T16:27:11.417Z,88.40
2022-12-20T16:29:32.862Z,89.40
2022-12-20T16:31:54.358Z,88.84
2022-12-20T16:34:17.088Z,89.89
2022-12-20T16:36:38.618Z,88.74
2022-12-20T16:39:00.059Z,90.20
2022-12-20T16:41:24.826Z,90.67
2022-12-20T16:43:47.926Z,90.42
2022-12-20T16:46:12.586Z,89.96
2022-12-20T16:48:34.602Z,89.70
2022-12-20T16:50:57.209Z,89.96
2022-12-20T16:53:19.258Z,89.37
2022-12-20T16:55:40.930Z,90.39
2022-12-20T16:58:02.374Z,90.62
2022-12-20T17:00:27.055Z,90.36
2022-12-20T17:02:49.716Z,89.46
2022-12-20T17:05:25.781Z,90.05
2022-12-20T17:07:47.220Z,90.50
2022-12-20T17:10:10.157Z,90.66
2022-12-20T17:12:31.597Z,90.34
2022-12-20T17:14:53.109Z,90.61
2022-12-20T17:17:15.406Z,90.87
2022-12-20T17:19:37.118Z,91.08
2022-12-20T17:24:37.685Z,93.10
2022-12-20T17:27:00.403Z,92.40
2022-12-20T17:29:22.109Z,91.78
2022-12-20T17:31:46.401Z,94.14
2022-12-20T17:34:22.756Z,92.99
2022-12-20T17:36:45.139Z,92.31
2022-12-20T17:39:06.583Z,91.93
2022-12-20T17:41:31.292Z,91.66
2022-12-20T17:43:53.559Z,91.70
2022-12-20T17:46:15.301Z,92.09
2022-12-20T17:48:43.425Z,92.40
2022-12-20T17:51:14.901Z,93.98
2022-12-20T17:53:36.338Z,93.48
2022-12-20T17:55:57.797Z,92.72
2022-12-20T17:58:19.231Z,92.95
2022-12-20T18:00:40.847Z,92.69
2022-12-20T18:03:02.403Z,92.62
2022-12-20T18:05:24.978Z,92.05
2022-12-20T18:07:54.406Z,92.13
2022-12-20T18:10:15.913Z,92.14
2022-12-20T18:12:38.973Z,91.86
2022-12-20T18:15:01.034Z,91.38
2022-12-20T18:17:22.497Z,91.64
2022-12-20T18:19:44.029Z,92.72
2022-12-20T18:22:06.561Z,92.84
2022-12-20T18:24:28.248Z,92.50
2022-12-20T18:26:49.725Z,92.82
2022-12-20T18:29:11.438Z,93.72
2022-12-20T18:31:34.554Z,93.64
2022-12-20T18:33:58.252Z,93.83
2022-12-20T18:36:25.798Z,93.42
2022-12-20T18:38:48.994Z,93.68
2022-12-20T18:41:19.413Z,94.73
2022-12-20T18:43:41.198Z,94.91
2022-12-20T18:46:07.819Z,94.14
2022-12-20T18:48:29.378Z,93.77
2022-12-20T18:50:50.897Z,92.14
2022-12-20T18:53:12.383Z,92.38
2022-12-20T18:55:36.899Z,93.68
2022-12-20T18:57:58.326Z,92.80
2022-12-20T19:00:20.512Z,93.71
2022-12-20T19:02:42.920Z,93.71
2022-12-20T19:05:04.803Z,94.85
2022-12-20T19:07:26.321Z,94.53
2022-12-20T19:09:47.809Z,94.18
2022-12-20T19:12:09.258Z,93.91
2022-12-20T19:14:30.718Z,92.83
2022-12-20T19:16:52.223Z,92.34
2022-12-20T19:19:14.054Z,92.82
2022-12-20T19:21:37.779Z,93.34
2022-12-20T19:24:03.926Z,93.02
2022-12-20T19:26:30.328Z,93.79
2022-12-20T19:28:51.883Z,93.19
2022-12-20T19:31:24.913Z,92.13
2022-12-20T19:33:48.018Z,92.21
2022-12-20T19:36:12.891Z,92.27
2022-12-20T19:38:34.337Z,91.41
2022-12-20T19:40:55.867Z,91.06
2022-12-20T19:43:17.318Z,91.91
2022-12-20T19:45:39.005Z,91.50
2022-12-20T19:48:00.469Z,91.34
2022-12-20T19:50:21.962Z,90.87
2022-12-20T19:52:43.402Z,91.89
2022-12-20T19:55:05.289Z,92.66
2022-12-20T19:57:26.806Z,92.17
2022-12-20T19:59:52.258Z,91.52
2022-12-20T20:02:17.296Z,92.06
2022-12-20T20:04:38.825Z,91.83
2022-12-20T20:07:00.460Z,91.71
2022-12-20T20:09:22.141Z,91.31
2022-12-20T20:11:43.607Z,92.41
2022-12-20T20:14:09.244Z,92.82
2022-12-20T20:16:30.911Z,94.80
2022-12-20T20:18:52.534Z,95.01
2022-12-20T20:21:17.946Z,93.52
2022-12-20T20:23:40.032Z,93.58
2022-12-20T20:26:01.558Z,91.64
2022-12-20T20:28:31.240Z,90.34
2022-12-20T20:30:56.595Z,90.88
2022-12-20T20:33:18.199Z,90.65
2022-12-20T20:35:40.424Z,89.53
2022-12-20T20:38:02.101Z,89.64
2022-12-20T20:40:23.546Z,89.91
2022-12-20T20:42:45.033Z,90.79
2022-12-20T20:45:07.389Z,92.25
2022-12-20T20:47:28.864Z,93.16
2022-12-20T20:49:52.721Z,93.67
2022-12-20T20:52:14.241Z,94.10
2022-12-20T20:54:35.691Z,95.57
2022-12-20T20:56:57.169Z,96.59
2022-12-20T20:59:18.679Z,94.49
2022-12-20T21:01:40.259Z,94.82
2022-12-20T21:04:02.193Z,94.63
2022-12-20T21:06:41.668Z,94.83
2022-12-20T21:09:04.352Z,93.49
2022-12-20T21:11:25.879Z,91.94
2022-12-20T21:13:47.427Z,92.17
2022-12-20T21:16:11.488Z,91.23
2022-12-20T21:18:33.044Z,90.99
2022-12-20T21:20:54.523Z,90.92
2022-12-20T21:23:15.953Z,90.42
2022-12-20T21:25:37.488Z,91.29
2022-12-20T21:27:59.002Z,91.13
2022-12-20T21:30:20.506Z,92.14
2022-12-20T21:32:41.994Z,93.28
2022-12-20T21:35:03.532Z,91.57
2022-12-20T21:37:25.903Z,91.87
2022-12-20T21:39:47.884Z,92.94
2022-12-20T21:42:09.347Z,93.30
2022-12-20T21:44:30.823Z,93.22
2022-12-20T21:46:52.494Z,93.56
2022-12-20T21:49:14.074Z,95.45
2022-12-20T21:51:35.552Z,96.11
2022-12-20T21:53:59.673Z,94.52
2022-12-20T21:56:22.532Z,94.89
2022-12-20T21:58:44.872Z,94.37
2022-12-20T22:01:08.116Z,95.07
2022-12-20T22:03:29.892Z,94.76
2022-12-20T22:05:54.391Z,94.60
2022-12-20T22:08:17.044Z,93.82
2022-12-20T22:10:38.511Z,93.31
2022-12-20T22:12:59.960Z,92.96
2022-12-20T22:15:21.439Z,92.93
2022-12-20T22:17:42.913Z,93.00
2022-12-20T22:20:05.027Z,93.21
2022-12-20T22:22:26.551Z,94.67
2022-12-20T22:24:48.058Z,95.32
2022-12-20T22:27:11.625Z,97.36
2022-12-20T22:29:33.275Z,97.79
2022-12-20T22:31:54.822Z,98.48
2022-12-20T22:34:16.304Z,100.00
2022-12-20T22:36:37.899Z,100.00
2022-12-20T22:38:59.793Z,99.51
2022-12-20T22:41:27.881Z,100.00
2022-12-20T22:43:49.641Z,100.00
2022-12-20T22:46:12.322Z,99.99
2022-12-20T22:48:33.841Z,99.61
2022-12-20T22:51:11.459Z,98.82
2022-12-20T22:53:34.103Z,98.40
2022-12-20T22:55:55.588Z,97.70
2022-12-20T22:58:17.051Z,97.49
2022-12-20T23:00:38.498Z,97.39
2022-12-20T23:03:00.080Z,96.69
2022-12-20T23:05:21.730Z,96.23
2022-12-20T23:07:43.229Z,96.64
2022-12-20T23:10:25.055Z,94.51
2022-12-20T23:13:05.094Z,95.12
2022-12-20T23:15:41.744Z,95.95
2022-12-20T23:18:03.239Z,96.38
2022-12-20T23:20:43.487Z,96.39
2022-12-20T23:23:04.912Z,96.74
2022-12-20T23:25:26.400Z,95.81
2022-12-20T23:27:49.559Z,96.10
2022-12-20T23:30:13.546Z,95.84
2022-12-20T23:32:35.259Z,96.46
2022-12-20T23:34:56.740Z,95.94
2022-12-20T23:37:18.342Z,95.94
2022-12-20T23:39:39.779Z,96.08
2022-12-20T23:42:01.235Z,96.66
2022-12-20T23:44:22.791Z,97.59
2022-12-20T23:46:44.249Z,98.96
2022-12-20T23:49:06.066Z,99.62
2022-12-20T23:51:27.599Z,100.00
2022-12-20T23:53:51.018Z,100.00
2022-12-20T23:56:16.019Z,98.24
2022-12-20T23:58:38.072Z,98.34
